sensor_id;sensor_type;location;lat;lon;timestamp;temperature;humidity
32534;DHT22;18973;48.580;8.912;2023-04-24T00:02:09;11.40;99.90
32534;DHT22;18973;48.580;8.912;2023-04-24T00:04:37;11.40;99.90
32534;DHT22;18973;48.580;8.912;2023-04-24T00:07:06;11.40;99.90
32534;DHT22;18973;48.580;8.912;2023-04-24T00:09:32;11.50;99.90
32534;DHT22;18973;48.580;8.912;2023-04-24T00:11:58;11.50;99.90
32534;DHT22;18973;48.580;8.912;2023-04-24T00:14:24;11.40;99.90
32534;DHT22;18973;48.580;8.912;2023-04-24T00:16:50;11.20;99.90
32534;DHT22;18973;48.580;8.912;2023-04-24T00:19:16;11.40;99.90
32534;DHT22;18973;48.580;8.912;2023-04-24T00:21:41;11.40;99.90
32534;DHT22;18973;48.580;8.912;2023-04-24T00:24:07;11.50;99.90
32534;DHT22;18973;48.580;8.912;2023-04-24T00:26:34;11.50;99.90
32534;DHT22;18973;48.580;8.912;2023-04-24T00:29:00;11.50;99.90
32534;DHT22;18973;48.580;8.912;2023-04-24T00:31:26;11.50;99.90
32534;DHT22;18973;48.580;8.912;2023-04-24T00:33:51;11.50;99.90
32534;DHT22;18973;48.580;8.912;2023-04-24T00:36:17;11.40;99.90
32534;DHT22;18973;48.580;8.912;2023-04-24T00:38:45;11.50;99.90
32534;DHT22;18973;48.580;8.912;2023-04-24T00:41:11;11.40;99.90
32534;DHT22;18973;48.580;8.912;2023-04-24T00:43:36;11.30;99.90
32534;DHT22;18973;48.580;8.912;2023-04-24T00:46:02;11.40;99.90
32534;DHT22;18973;48.580;8.912;2023-04-24T00:48:28;11.30;99.90
32534;DHT22;18973;48.580;8.912;2023-04-24T00:50:55;11.10;99.90
32534;DHT22;18973;48.580;8.912;2023-04-24T00:53:20;11.10;99.90
32534;DHT22;18973;48.580;8.912;2023-04-24T00:55:46;11.10;99.90
32534;DHT22;18973;48.580;8.912;2023-04-24T00:58:12;11.10;99.90
32534;DHT22;18973;48.580;8.912;2023-04-24T01:00:38;11.20;99.90
32534;DHT22;18973;48.580;8.912;2023-04-24T01:03:05;11.30;99.90
32534;DHT22;18973;48.580;8.912;2023-04-24T01:05:31;11.30;99.90
32534;DHT22;18973;48.580;8.912;2023-04-24T01:07:58;11.30;99.90
32534;DHT22;18973;48.580;8.912;2023-04-24T01:10:25;11.30;99.90
32534;DHT22;18973;48.580;8.912;2023-04-24T01:12:53;11.30;99.90
32534;DHT22;18973;48.580;8.912;2023-04-24T01:15:18;11.40;99.90
32534;DHT22;18973;48.580;8.912;2023-04-24T01:17:44;11.30;99.90
32534;DHT22;18973;48.580;8.912;2023-04-24T01:20:10;11.30;99.90
32534;DHT22;18973;48.580;8.912;2023-04-24T01:22:36;11.40;99.90
32534;DHT22;18973;48.580;8.912;2023-04-24T01:25:03;11.40;99.90
32534;DHT22;18973;48.580;8.912;2023-04-24T01:27:29;11.50;99.90
32534;DHT22;18973;48.580;8.912;2023-04-24T01:29:55;11.50;99.90
32534;DHT22;18973;48.580;8.912;2023-04-24T01:32:21;11.60;99.90
32534;DHT22;18973;48.580;8.912;2023-04-24T01:34:47;11.60;99.90
32534;DHT22;18973;48.580;8.912;2023-04-24T01:37:13;11.60;99.90
32534;DHT22;18973;48.580;8.912;2023-04-24T01:39:39;11.60;99.90
32534;DHT22;18973;48.580;8.912;2023-04-24T01:42:05;11.60;99.90
32534;DHT22;18973;48.580;8.912;2023-04-24T01:44:33;11.60;99.90
32534;DHT22;18973;48.580;8.912;2023-04-24T01:47:00;11.50;99.90
32534;DHT22;18973;48.580;8.912;2023-04-24T01:49:27;11.50;99.90
32534;DHT22;18973;48.580;8.912;2023-04-24T01:51:52;11.40;99.90
32534;DHT22;18973;48.580;8.912;2023-04-24T01:54:18;11.40;99.90
32534;DHT22;18973;48.580;8.912;2023-04-24T01:56:45;11.50;99.90
32534;DHT22;18973;48.580;8.912;2023-04-24T01:59:11;11.30;99.90
32534;DHT22;18973;48.580;8.912;2023-04-24T02:01:38;11.00;99.90
32534;DHT22;18973;48.580;8.912;2023-04-24T02:04:05;11.00;99.90
32534;DHT22;18973;48.580;8.912;2023-04-24T02:06:31;10.90;99.90
32534;DHT22;18973;48.580;8.912;2023-04-24T02:08:58;10.80;99.90
32534;DHT22;18973;48.580;8.912;2023-04-24T02:11:24;10.80;99.90
32534;DHT22;18973;48.580;8.912;2023-04-24T02:13:50;10.80;99.90
32534;DHT22;18973;48.580;8.912;2023-04-24T02:16:17;10.90;99.90
32534;DHT22;18973;48.580;8.912;2023-04-24T02:18:43;10.70;99.90
32534;DHT22;18973;48.580;8.912;2023-04-24T02:21:09;10.80;99.90
32534;DHT22;18973;48.580;8.912;2023-04-24T02:23:34;11.00;99.90
32534;DHT22;18973;48.580;8.912;2023-04-24T02:26:00;11.00;99.90
32534;DHT22;18973;48.580;8.912;2023-04-24T02:28:26;11.10;99.90
32534;DHT22;18973;48.580;8.912;2023-04-24T02:30:52;11.20;99.90
32534;DHT22;18973;48.580;8.912;2023-04-24T02:33:17;11.20;99.90
32534;DHT22;18973;48.580;8.912;2023-04-24T02:35:43;11.20;99.90
32534;DHT22;18973;48.580;8.912;2023-04-24T02:38:08;11.20;99.90
32534;DHT22;18973;48.580;8.912;2023-04-24T02:40:34;11.20;99.90
32534;DHT22;18973;48.580;8.912;2023-04-24T02:43:00;11.10;99.90
32534;DHT22;18973;48.580;8.912;2023-04-24T02:45:25;11.20;99.90
32534;DHT22;18973;48.580;8.912;2023-04-24T02:47:51;11.10;99.90
32534;DHT22;18973;48.580;8.912;2023-04-24T02:50:17;11.00;99.90
32534;DHT22;18973;48.580;8.912;2023-04-24T02:52:42;11.10;99.90
32534;DHT22;18973;48.580;8.912;2023-04-24T02:55:08;11.10;99.90
32534;DHT22;18973;48.580;8.912;2023-04-24T02:57:34;10.90;99.90
32534;DHT22;18973;48.580;8.912;2023-04-24T03:00:00;11.00;99.90
32534;DHT22;18973;48.580;8.912;2023-04-24T03:02:25;10.90;99.90
32534;DHT22;18973;48.580;8.912;2023-04-24T03:04:51;11.00;99.90
32534;DHT22;18973;48.580;8.912;2023-04-24T03:07:17;11.10;99.90
32534;DHT22;18973;48.580;8.912;2023-04-24T03:09:46;11.10;99.90
32534;DHT22;18973;48.580;8.912;2023-04-24T03:12:12;11.00;99.90
32534;DHT22;18973;48.580;8.912;2023-04-24T03:14:38;11.00;99.90
32534;DHT22;18973;48.580;8.912;2023-04-24T03:17:04;10.90;99.90
32534;DHT22;18973;48.580;8.912;2023-04-24T03:19:29;10.90;99.90
32534;DHT22;18973;48.580;8.912;2023-04-24T03:21:55;10.80;99.90
32534;DHT22;18973;48.580;8.912;2023-04-24T03:24:21;10.80;99.90
32534;DHT22;18973;48.580;8.912;2023-04-24T03:26:47;10.80;99.90
32534;DHT22;18973;48.580;8.912;2023-04-24T03:29:12;10.70;99.90
32534;DHT22;18973;48.580;8.912;2023-04-24T03:31:38;10.70;99.90
32534;DHT22;18973;48.580;8.912;2023-04-24T03:34:03;10.70;99.90
32534;DHT22;18973;48.580;8.912;2023-04-24T03:36:29;10.60;99.90
32534;DHT22;18973;48.580;8.912;2023-04-24T03:38:56;10.50;99.90
32534;DHT22;18973;48.580;8.912;2023-04-24T03:41:22;10.40;99.90
32534;DHT22;18973;48.580;8.912;2023-04-24T03:43:48;10.40;99.90
32534;DHT22;18973;48.580;8.912;2023-04-24T03:46:13;10.40;99.90
32534;DHT22;18973;48.580;8.912;2023-04-24T03:48:41;10.40;99.90
32534;DHT22;18973;48.580;8.912;2023-04-24T03:51:07;10.40;99.90
32534;DHT22;18973;48.580;8.912;2023-04-24T03:53:33;10.40;99.90
32534;DHT22;18973;48.580;8.912;2023-04-24T03:55:58;10.40;99.90
32534;DHT22;18973;48.580;8.912;2023-04-24T03:58:24;10.40;99.90
32534;DHT22;18973;48.580;8.912;2023-04-24T04:00:50;10.40;99.90
32534;DHT22;18973;48.580;8.912;2023-04-24T04:03:16;10.40;99.90
32534;DHT22;18973;48.580;8.912;2023-04-24T04:05:42;10.40;99.90
32534;DHT22;18973;48.580;8.912;2023-04-24T04:08:07;10.30;99.90
32534;DHT22;18973;48.580;8.912;2023-04-24T04:10:33;10.40;99.90
32534;DHT22;18973;48.580;8.912;2023-04-24T04:12:59;10.20;99.90
32534;DHT22;18973;48.580;8.912;2023-04-24T04:15:25;10.30;99.90
32534;DHT22;18973;48.580;8.912;2023-04-24T04:17:51;10.10;99.90
32534;DHT22;18973;48.580;8.912;2023-04-24T04:20:19;10.10;99.90
32534;DHT22;18973;48.580;8.912;2023-04-24T04:22:45;10.20;99.90
32534;DHT22;18973;48.580;8.912;2023-04-24T04:25:11;10.20;99.90
32534;DHT22;18973;48.580;8.912;2023-04-24T04:27:38;10.20;99.90
32534;DHT22;18973;48.580;8.912;2023-04-24T04:30:07;10.30;99.90
32534;DHT22;18973;48.580;8.912;2023-04-24T04:32:34;10.30;99.90
32534;DHT22;18973;48.580;8.912;2023-04-24T04:35:00;10.20;99.90
32534;DHT22;18973;48.580;8.912;2023-04-24T04:37:30;10.10;99.90
32534;DHT22;18973;48.580;8.912;2023-04-24T04:39:59;10.10;99.90
32534;DHT22;18973;48.580;8.912;2023-04-24T04:42:28;10.10;99.90
32534;DHT22;18973;48.580;8.912;2023-04-24T04:44:56;10.20;99.90
32534;DHT22;18973;48.580;8.912;2023-04-24T04:47:23;10.20;99.90
32534;DHT22;18973;48.580;8.912;2023-04-24T04:49:49;10.30;99.90
32534;DHT22;18973;48.580;8.912;2023-04-24T04:52:16;10.40;99.90
32534;DHT22;18973;48.580;8.912;2023-04-24T04:54:43;10.40;99.90
32534;DHT22;18973;48.580;8.912;2023-04-24T04:57:08;10.40;99.90
32534;DHT22;18973;48.580;8.912;2023-04-24T04:59:34;10.30;99.90
32534;DHT22;18973;48.580;8.912;2023-04-24T05:02:00;10.30;99.90
32534;DHT22;18973;48.580;8.912;2023-04-24T05:04:26;10.30;99.90
32534;DHT22;18973;48.580;8.912;2023-04-24T05:06:52;10.40;99.90
32534;DHT22;18973;48.580;8.912;2023-04-24T05:09:18;10.60;99.90
32534;DHT22;18973;48.580;8.912;2023-04-24T05:11:44;10.60;99.90
32534;DHT22;18973;48.580;8.912;2023-04-24T05:14:10;10.50;99.90
32534;DHT22;18973;48.580;8.912;2023-04-24T05:16:35;10.40;99.90
32534;DHT22;18973;48.580;8.912;2023-04-24T05:19:02;10.40;99.90
32534;DHT22;18973;48.580;8.912;2023-04-24T05:21:28;10.40;99.90
32534;DHT22;18973;48.580;8.912;2023-04-24T05:23:54;10.50;99.90
32534;DHT22;18973;48.580;8.912;2023-04-24T05:26:20;10.60;99.90
32534;DHT22;18973;48.580;8.912;2023-04-24T05:28:46;10.60;99.90
32534;DHT22;18973;48.580;8.912;2023-04-24T05:31:11;10.70;99.90
32534;DHT22;18973;48.580;8.912;2023-04-24T05:33:37;10.50;99.90
32534;DHT22;18973;48.580;8.912;2023-04-24T05:36:03;10.70;99.90
32534;DHT22;18973;48.580;8.912;2023-04-24T05:38:30;10.60;99.90
32534;DHT22;18973;48.580;8.912;2023-04-24T05:40:56;10.60;99.90
32534;DHT22;18973;48.580;8.912;2023-04-24T05:43:22;10.60;99.90
32534;DHT22;18973;48.580;8.912;2023-04-24T05:45:48;10.50;99.90
32534;DHT22;18973;48.580;8.912;2023-04-24T05:48:13;10.60;99.90
32534;DHT22;18973;48.580;8.912;2023-04-24T05:50:39;10.60;99.90
32534;DHT22;18973;48.580;8.912;2023-04-24T05:53:05;10.80;99.90
32534;DHT22;18973;48.580;8.912;2023-04-24T05:55:32;10.90;99.90
32534;DHT22;18973;48.580;8.912;2023-04-24T05:57:58;10.90;99.90
32534;DHT22;18973;48.580;8.912;2023-04-24T06:00:25;11.00;99.90
32534;DHT22;18973;48.580;8.912;2023-04-24T06:02:51;10.90;99.90
32534;DHT22;18973;48.580;8.912;2023-04-24T06:05:18;10.90;99.90
32534;DHT22;18973;48.580;8.912;2023-04-24T06:07:44;10.90;99.90
32534;DHT22;18973;48.580;8.912;2023-04-24T06:10:10;10.90;99.90
32534;DHT22;18973;48.580;8.912;2023-04-24T06:12:36;11.00;99.90
32534;DHT22;18973;48.580;8.912;2023-04-24T06:15:02;11.00;99.90
32534;DHT22;18973;48.580;8.912;2023-04-24T06:17:28;11.00;99.90
32534;DHT22;18973;48.580;8.912;2023-04-24T06:19:54;11.00;99.90
32534;DHT22;18973;48.580;8.912;2023-04-24T06:22:20;11.10;99.90
32534;DHT22;18973;48.580;8.912;2023-04-24T06:24:45;11.20;99.90
32534;DHT22;18973;48.580;8.912;2023-04-24T06:27:12;11.30;99.90
32534;DHT22;18973;48.580;8.912;2023-04-24T06:29:38;11.30;99.90
32534;DHT22;18973;48.580;8.912;2023-04-24T06:32:03;11.50;99.90
32534;DHT22;18973;48.580;8.912;2023-04-24T06:34:29;11.50;99.90
32534;DHT22;18973;48.580;8.912;2023-04-24T06:36:56;11.60;99.90
32534;DHT22;18973;48.580;8.912;2023-04-24T06:39:22;11.70;99.90
32534;DHT22;18973;48.580;8.912;2023-04-24T06:41:47;11.80;99.90
32534;DHT22;18973;48.580;8.912;2023-04-24T06:44:13;11.80;99.90
32534;DHT22;18973;48.580;8.912;2023-04-24T06:46:40;11.80;99.90
32534;DHT22;18973;48.580;8.912;2023-04-24T06:49:06;11.90;99.90
32534;DHT22;18973;48.580;8.912;2023-04-24T06:51:32;11.90;99.90
32534;DHT22;18973;48.580;8.912;2023-04-24T06:53:58;11.90;99.90
32534;DHT22;18973;48.580;8.912;2023-04-24T06:56:24;11.80;99.90
32534;DHT22;18973;48.580;8.912;2023-04-24T06:58:50;11.60;99.90
32534;DHT22;18973;48.580;8.912;2023-04-24T07:01:17;11.30;99.90
32534;DHT22;18973;48.580;8.912;2023-04-24T07:03:42;11.10;99.90
32534;DHT22;18973;48.580;8.912;2023-04-24T07:06:09;11.00;99.90
32534;DHT22;18973;48.580;8.912;2023-04-24T07:08:38;10.80;99.90
32534;DHT22;18973;48.580;8.912;2023-04-24T07:11:04;10.80;99.90
32534;DHT22;18973;48.580;8.912;2023-04-24T07:13:31;10.70;99.90
32534;DHT22;18973;48.580;8.912;2023-04-24T07:15:56;10.80;99.90
32534;DHT22;18973;48.580;8.912;2023-04-24T07:18:22;10.90;99.90
32534;DHT22;18973;48.580;8.912;2023-04-24T07:20:48;11.20;99.90
32534;DHT22;18973;48.580;8.912;2023-04-24T07:23:16;11.40;99.90
32534;DHT22;18973;48.580;8.912;2023-04-24T07:25:42;11.50;99.90
32534;DHT22;18973;48.580;8.912;2023-04-24T07:28:08;11.60;99.90
32534;DHT22;18973;48.580;8.912;2023-04-24T07:30:34;11.50;99.90
32534;DHT22;18973;48.580;8.912;2023-04-24T07:32:59;11.50;99.90
32534;DHT22;18973;48.580;8.912;2023-04-24T07:35:26;11.50;99.90
32534;DHT22;18973;48.580;8.912;2023-04-24T07:37:55;11.60;99.90
32534;DHT22;18973;48.580;8.912;2023-04-24T07:40:22;11.50;99.90
32534;DHT22;18973;48.580;8.912;2023-04-24T07:42:48;11.50;99.90
32534;DHT22;18973;48.580;8.912;2023-04-24T07:45:14;11.40;99.90
32534;DHT22;18973;48.580;8.912;2023-04-24T07:47:43;11.50;99.90
32534;DHT22;18973;48.580;8.912;2023-04-24T07:50:11;11.50;99.90
32534;DHT22;18973;48.580;8.912;2023-04-24T07:52:37;11.50;99.90
32534;DHT22;18973;48.580;8.912;2023-04-24T07:55:03;11.50;99.90
32534;DHT22;18973;48.580;8.912;2023-04-24T07:57:29;11.50;99.90
32534;DHT22;18973;48.580;8.912;2023-04-24T07:59:54;11.50;99.90
32534;DHT22;18973;48.580;8.912;2023-04-24T08:02:20;11.40;99.90
32534;DHT22;18973;48.580;8.912;2023-04-24T08:04:54;11.40;99.90
32534;DHT22;18973;48.580;8.912;2023-04-24T08:07:20;11.20;99.90
32534;DHT22;18973;48.580;8.912;2023-04-24T08:09:47;11.10;99.90
32534;DHT22;18973;48.580;8.912;2023-04-24T08:12:12;11.10;99.90
32534;DHT22;18973;48.580;8.912;2023-04-24T08:14:38;11.10;99.90
32534;DHT22;18973;48.580;8.912;2023-04-24T08:17:05;11.30;99.90
32534;DHT22;18973;48.580;8.912;2023-04-24T08:19:30;11.50;99.90
32534;DHT22;18973;48.580;8.912;2023-04-24T08:21:56;11.70;99.90
32534;DHT22;18973;48.580;8.912;2023-04-24T08:24:22;12.00;99.90
32534;DHT22;18973;48.580;8.912;2023-04-24T08:26:48;12.20;99.90
32534;DHT22;18973;48.580;8.912;2023-04-24T08:29:17;12.40;99.90
32534;DHT22;18973;48.580;8.912;2023-04-24T08:31:43;12.60;99.90
32534;DHT22;18973;48.580;8.912;2023-04-24T08:34:09;12.80;99.90
32534;DHT22;18973;48.580;8.912;2023-04-24T08:36:36;12.70;99.90
32534;DHT22;18973;48.580;8.912;2023-04-24T08:39:01;12.60;99.90
32534;DHT22;18973;48.580;8.912;2023-04-24T08:41:27;12.40;99.90
32534;DHT22;18973;48.580;8.912;2023-04-24T08:43:53;12.30;99.90
32534;DHT22;18973;48.580;8.912;2023-04-24T08:46:20;12.00;99.90
32534;DHT22;18973;48.580;8.912;2023-04-24T08:48:48;11.90;99.90
32534;DHT22;18973;48.580;8.912;2023-04-24T08:51:15;11.90;99.90
32534;DHT22;18973;48.580;8.912;2023-04-24T08:53:41;11.60;99.90
32534;DHT22;18973;48.580;8.912;2023-04-24T08:56:08;11.40;99.90
32534;DHT22;18973;48.580;8.912;2023-04-24T08:58:35;11.50;99.90
32534;DHT22;18973;48.580;8.912;2023-04-24T09:01:02;11.90;99.90
32534;DHT22;18973;48.580;8.912;2023-04-24T09:03:29;12.50;99.90
32534;DHT22;18973;48.580;8.912;2023-04-24T09:05:55;12.60;99.90
32534;DHT22;18973;48.580;8.912;2023-04-24T09:08:24;12.60;99.90
32534;DHT22;18973;48.580;8.912;2023-04-24T09:10:51;12.60;99.90
32534;DHT22;18973;48.580;8.912;2023-04-24T09:13:19;12.60;99.90
32534;DHT22;18973;48.580;8.912;2023-04-24T09:15:45;12.60;99.90
32534;DHT22;18973;48.580;8.912;2023-04-24T09:18:11;12.90;99.90
32534;DHT22;18973;48.580;8.912;2023-04-24T09:20:57;13.20;99.60
32534;DHT22;18973;48.580;8.912;2023-04-24T09:23:26;13.30;98.00
32534;DHT22;18973;48.580;8.912;2023-04-24T09:25:55;13.40;97.00
32534;DHT22;18973;48.580;8.912;2023-04-24T09:28:36;13.40;96.90
32534;DHT22;18973;48.580;8.912;2023-04-24T09:31:23;13.50;98.10
32534;DHT22;18973;48.580;8.912;2023-04-24T09:36:35;13.70;95.20
32534;DHT22;18973;48.580;8.912;2023-04-24T09:39:05;14.00;96.60
32534;DHT22;18973;48.580;8.912;2023-04-24T09:41:33;13.90;94.50
32534;DHT22;18973;48.580;8.912;2023-04-24T09:44:15;13.90;94.40
32534;DHT22;18973;48.580;8.912;2023-04-24T09:46:42;14.20;96.30
32534;DHT22;18973;48.580;8.912;2023-04-24T09:49:15;14.30;93.10
32534;DHT22;18973;48.580;8.912;2023-04-24T09:51:42;14.20;92.60
32534;DHT22;18973;48.580;8.912;2023-04-24T09:54:20;14.20;93.80
32534;DHT22;18973;48.580;8.912;2023-04-24T09:56:48;14.60;94.60
32534;DHT22;18973;48.580;8.912;2023-04-24T09:59:16;14.60;90.90
32534;DHT22;18973;48.580;8.912;2023-04-24T10:01:42;14.30;93.10
32534;DHT22;18973;48.580;8.912;2023-04-24T10:04:20;14.10;93.70
32534;DHT22;18973;48.580;8.912;2023-04-24T10:06:48;14.00;92.80
32534;DHT22;18973;48.580;8.912;2023-04-24T10:09:15;13.90;93.00
32534;DHT22;18973;48.580;8.912;2023-04-24T10:11:45;13.80;92.60
32534;DHT22;18973;48.580;8.912;2023-04-24T10:14:13;13.40;93.30
32534;DHT22;18973;48.580;8.912;2023-04-24T10:16:40;13.10;92.20
32534;DHT22;18973;48.580;8.912;2023-04-24T10:19:07;12.90;93.60
32534;DHT22;18973;48.580;8.912;2023-04-24T10:21:33;12.70;94.40
32534;DHT22;18973;48.580;8.912;2023-04-24T10:24:00;12.50;95.20
32534;DHT22;18973;48.580;8.912;2023-04-24T10:26:29;12.50;95.60
32534;DHT22;18973;48.580;8.912;2023-04-24T10:28:57;12.50;95.10
32534;DHT22;18973;48.580;8.912;2023-04-24T10:31:23;12.40;96.20
32534;DHT22;18973;48.580;8.912;2023-04-24T10:33:50;12.40;98.30
32534;DHT22;18973;48.580;8.912;2023-04-24T10:36:17;12.70;97.10
32534;DHT22;18973;48.580;8.912;2023-04-24T10:38:45;12.80;97.70
32534;DHT22;18973;48.580;8.912;2023-04-24T10:41:12;13.20;99.90
32534;DHT22;18973;48.580;8.912;2023-04-24T10:43:45;13.80;99.90
32534;DHT22;18973;48.580;8.912;2023-04-24T10:46:19;14.00;99.90
32534;DHT22;18973;48.580;8.912;2023-04-24T10:48:52;13.80;97.20
32534;DHT22;18973;48.580;8.912;2023-04-24T10:51:26;13.40;97.00
32534;DHT22;18973;48.580;8.912;2023-04-24T10:56:53;13.30;98.80
32534;DHT22;18973;48.580;8.912;2023-04-24T10:59:27;13.30;97.30
32534;DHT22;18973;48.580;8.912;2023-04-24T11:01:54;13.20;97.80
32534;DHT22;18973;48.580;8.912;2023-04-24T11:04:31;13.20;98.50
32534;DHT22;18973;48.580;8.912;2023-04-24T11:07:00;13.10;98.40
32534;DHT22;18973;48.580;8.912;2023-04-24T11:09:28;12.90;98.10
32534;DHT22;18973;48.580;8.912;2023-04-24T11:12:05;12.70;98.20
32534;DHT22;18973;48.580;8.912;2023-04-24T11:17:30;12.40;98.40
32534;DHT22;18973;48.580;8.912;2023-04-24T11:20:11;12.30;98.20
32534;DHT22;18973;48.580;8.912;2023-04-24T11:22:39;12.10;98.40
32534;DHT22;18973;48.580;8.912;2023-04-24T11:25:10;11.90;98.90
32534;DHT22;18973;48.580;8.912;2023-04-24T11:27:44;11.70;99.60
32534;DHT22;18973;48.580;8.912;2023-04-24T11:30:17;11.70;99.60
32534;DHT22;18973;48.580;8.912;2023-04-24T11:32:43;12.00;99.90
32534;DHT22;18973;48.580;8.912;2023-04-24T11:35:21;12.60;99.90
32534;DHT22;18973;48.580;8.912;2023-04-24T11:37:53;13.10;99.90
32534;DHT22;18973;48.580;8.912;2023-04-24T11:40:20;13.40;99.90
32534;DHT22;18973;48.580;8.912;2023-04-24T11:42:51;13.50;98.20
32534;DHT22;18973;48.580;8.912;2023-04-24T11:45:25;13.50;99.90
32534;DHT22;18973;48.580;8.912;2023-04-24T11:47:51;13.40;99.00
32534;DHT22;18973;48.580;8.912;2023-04-24T11:50:19;13.30;98.20
32534;DHT22;18973;48.580;8.912;2023-04-24T11:52:47;13.10;98.40
32534;DHT22;18973;48.580;8.912;2023-04-24T11:57:55;12.90;98.80
32534;DHT22;18973;48.580;8.912;2023-04-24T12:00:28;13.10;98.40
32534;DHT22;18973;48.580;8.912;2023-04-24T12:03:08;12.90;97.30
32534;DHT22;18973;48.580;8.912;2023-04-24T12:05:35;12.70;97.50
32534;DHT22;18973;48.580;8.912;2023-04-24T12:08:01;12.60;98.70
32534;DHT22;18973;48.580;8.912;2023-04-24T12:10:29;12.60;99.90
32534;DHT22;18973;48.580;8.912;2023-04-24T12:12:56;12.60;99.50
32534;DHT22;18973;48.580;8.912;2023-04-24T12:15:23;12.50;98.50
32534;DHT22;18973;48.580;8.912;2023-04-24T12:17:51;12.40;99.40
32534;DHT22;18973;48.580;8.912;2023-04-24T12:20:17;12.40;98.80
32534;DHT22;18973;48.580;8.912;2023-04-24T12:22:48;12.20;98.40
32534;DHT22;18973;48.580;8.912;2023-04-24T12:25:16;12.10;99.90
32534;DHT22;18973;48.580;8.912;2023-04-24T12:27:44;12.20;99.40
32534;DHT22;18973;48.580;8.912;2023-04-24T12:30:15;12.30;99.60
32534;DHT22;18973;48.580;8.912;2023-04-24T12:32:48;12.50;99.90
32534;DHT22;18973;48.580;8.912;2023-04-24T12:35:19;12.30;99.90
32534;DHT22;18973;48.580;8.912;2023-04-24T12:37:46;12.20;99.90
32534;DHT22;18973;48.580;8.912;2023-04-24T12:40:13;12.10;99.90
32534;DHT22;18973;48.580;8.912;2023-04-24T12:42:47;12.20;99.90
32534;DHT22;18973;48.580;8.912;2023-04-24T12:45:13;12.30;99.90
32534;DHT22;18973;48.580;8.912;2023-04-24T12:47:40;12.60;99.90
32534;DHT22;18973;48.580;8.912;2023-04-24T12:50:11;13.00;99.60
32534;DHT22;18973;48.580;8.912;2023-04-24T12:52:37;13.00;99.90
32534;DHT22;18973;48.580;8.912;2023-04-24T12:55:03;13.00;98.60
32534;DHT22;18973;48.580;8.912;2023-04-24T12:57:30;12.90;99.60
32534;DHT22;18973;48.580;8.912;2023-04-24T12:59:58;12.80;99.70
32534;DHT22;18973;48.580;8.912;2023-04-24T13:02:28;12.80;99.90
32534;DHT22;18973;48.580;8.912;2023-04-24T13:04:57;12.80;98.80
32534;DHT22;18973;48.580;8.912;2023-04-24T13:07:24;12.70;99.90
32534;DHT22;18973;48.580;8.912;2023-04-24T13:09:51;12.60;99.90
32534;DHT22;18973;48.580;8.912;2023-04-24T13:12:17;12.60;99.40
32534;DHT22;18973;48.580;8.912;2023-04-24T13:14:43;12.50;98.30
32534;DHT22;18973;48.580;8.912;2023-04-24T13:17:09;12.50;98.70
32534;DHT22;18973;48.580;8.912;2023-04-24T13:19:38;12.40;98.20
32534;DHT22;18973;48.580;8.912;2023-04-24T13:22:05;12.30;98.80
32534;DHT22;18973;48.580;8.912;2023-04-24T13:24:32;12.40;99.90
32534;DHT22;18973;48.580;8.912;2023-04-24T13:26:58;12.30;97.60
32534;DHT22;18973;48.580;8.912;2023-04-24T13:29:23;12.20;98.10
32534;DHT22;18973;48.580;8.912;2023-04-24T13:31:53;12.20;97.50
32534;DHT22;18973;48.580;8.912;2023-04-24T13:34:25;12.20;98.30
32534;DHT22;18973;48.580;8.912;2023-04-24T13:36:53;12.30;97.70
32534;DHT22;18973;48.580;8.912;2023-04-24T13:39:19;12.30;97.50
32534;DHT22;18973;48.580;8.912;2023-04-24T13:41:45;12.40;98.00
32534;DHT22;18973;48.580;8.912;2023-04-24T13:44:12;12.50;98.70
32534;DHT22;18973;48.580;8.912;2023-04-24T13:46:38;12.40;98.90
32534;DHT22;18973;48.580;8.912;2023-04-24T13:49:06;12.50;97.40
32534;DHT22;18973;48.580;8.912;2023-04-24T13:51:33;12.50;99.70
32534;DHT22;18973;48.580;8.912;2023-04-24T13:53:58;12.60;99.90
32534;DHT22;18973;48.580;8.912;2023-04-24T13:56:26;13.00;99.90
32534;DHT22;18973;48.580;8.912;2023-04-24T13:58:51;13.20;99.80
32534;DHT22;18973;48.580;8.912;2023-04-24T14:01:19;13.10;97.20
32534;DHT22;18973;48.580;8.912;2023-04-24T14:03:45;12.90;98.10
32534;DHT22;18973;48.580;8.912;2023-04-24T14:06:10;12.80;98.00
32534;DHT22;18973;48.580;8.912;2023-04-24T14:08:36;12.60;96.30
32534;DHT22;18973;48.580;8.912;2023-04-24T14:11:02;12.30;97.50
32534;DHT22;18973;48.580;8.912;2023-04-24T14:13:28;12.20;98.20
32534;DHT22;18973;48.580;8.912;2023-04-24T14:15:54;12.00;97.90
32534;DHT22;18973;48.580;8.912;2023-04-24T14:18:20;11.90;98.30
32534;DHT22;18973;48.580;8.912;2023-04-24T14:20:45;11.90;98.80
32534;DHT22;18973;48.580;8.912;2023-04-24T14:23:11;11.90;98.20
32534;DHT22;18973;48.580;8.912;2023-04-24T14:25:37;11.90;99.20
32534;DHT22;18973;48.580;8.912;2023-04-24T14:28:03;12.00;98.40
32534;DHT22;18973;48.580;8.912;2023-04-24T14:30:28;11.90;98.00
32534;DHT22;18973;48.580;8.912;2023-04-24T14:32:54;11.90;98.50
32534;DHT22;18973;48.580;8.912;2023-04-24T14:35:20;11.90;98.20
32534;DHT22;18973;48.580;8.912;2023-04-24T14:37:45;11.80;98.10
32534;DHT22;18973;48.580;8.912;2023-04-24T14:40:11;11.80;98.40
32534;DHT22;18973;48.580;8.912;2023-04-24T14:42:37;11.70;98.50
32534;DHT22;18973;48.580;8.912;2023-04-24T14:45:03;11.70;98.70
32534;DHT22;18973;48.580;8.912;2023-04-24T14:47:29;11.60;98.60
32534;DHT22;18973;48.580;8.912;2023-04-24T14:49:55;11.70;98.70
32534;DHT22;18973;48.580;8.912;2023-04-24T14:52:20;11.70;98.70
32534;DHT22;18973;48.580;8.912;2023-04-24T14:54:46;11.70;98.90
32534;DHT22;18973;48.580;8.912;2023-04-24T14:57:12;11.70;98.10
32534;DHT22;18973;48.580;8.912;2023-04-24T14:59:38;11.60;98.80
32534;DHT22;18973;48.580;8.912;2023-04-24T15:02:05;11.70;99.40
32534;DHT22;18973;48.580;8.912;2023-04-24T15:04:31;11.80;99.40
32534;DHT22;18973;48.580;8.912;2023-04-24T15:06:57;11.90;99.50
32534;DHT22;18973;48.580;8.912;2023-04-24T15:09:24;12.00;98.80
32534;DHT22;18973;48.580;8.912;2023-04-24T15:11:50;12.20;99.30
32534;DHT22;18973;48.580;8.912;2023-04-24T15:14:17;12.30;99.60
32534;DHT22;18973;48.580;8.912;2023-04-24T15:16:43;12.50;98.60
32534;DHT22;18973;48.580;8.912;2023-04-24T15:19:10;12.40;98.50
32534;DHT22;18973;48.580;8.912;2023-04-24T15:21:37;12.60;98.70
32534;DHT22;18973;48.580;8.912;2023-04-24T15:24:06;12.60;98.20
32534;DHT22;18973;48.580;8.912;2023-04-24T15:26:31;12.70;99.30
32534;DHT22;18973;48.580;8.912;2023-04-24T15:29:00;12.70;98.30
32534;DHT22;18973;48.580;8.912;2023-04-24T15:31:26;12.70;98.00
32534;DHT22;18973;48.580;8.912;2023-04-24T15:33:51;12.70;97.80
32534;DHT22;18973;48.580;8.912;2023-04-24T15:36:20;12.70;97.30
32534;DHT22;18973;48.580;8.912;2023-04-24T15:38:47;12.70;98.00
32534;DHT22;18973;48.580;8.912;2023-04-24T15:41:13;12.70;97.40